sensor_id;sensor_type;location;lat;lon;timestamp;temperature;humidity
66019;HTU21D;52787;51.084;5.816;2022-11-20T00:01:24;6.37;71.48
66019;HTU21D;52787;51.084;5.816;2022-11-20T00:03:52;6.34;71.01
66019;HTU21D;52787;51.084;5.816;2022-11-20T00:06:20;6.30;70.87
66019;HTU21D;52787;51.084;5.816;2022-11-20T00:08:47;6.29;70.90
66019;HTU21D;52787;51.084;5.816;2022-11-20T00:11:16;6.24;70.77
66019;HTU21D;52787;51.084;5.816;2022-11-20T00:13:44;6.17;70.60
66019;HTU21D;52787;51.084;5.816;2022-11-20T00:16:13;6.12;70.58
66019;HTU21D;52787;51.084;5.816;2022-11-20T00:18:40;6.11;70.45
66019;HTU21D;52787;51.084;5.816;2022-11-20T00:21:27;6.11;70.71
66019;HTU21D;52787;51.084;5.816;2022-11-20T00:23:55;6.13;70.74
66019;HTU21D;52787;51.084;5.816;2022-11-20T00:26:24;6.17;70.81
66019;HTU21D;52787;51.084;5.816;2022-11-20T00:28:56;6.20;70.94
66019;HTU21D;52787;51.084;5.816;2022-11-20T00:31:24;6.24;71.00
66019;HTU21D;52787;51.084;5.816;2022-11-20T00:33:51;6.31;70.49
66019;HTU21D;52787;51.084;5.816;2022-11-20T00:36:23;6.28;70.54
66019;HTU21D;52787;51.084;5.816;2022-11-20T00:38:55;6.30;71.03
66019;HTU21D;52787;51.084;5.816;2022-11-20T00:41:23;6.31;71.36
66019;HTU21D;52787;51.084;5.816;2022-11-20T00:43:51;6.34;71.33
66019;HTU21D;52787;51.084;5.816;2022-11-20T00:46:21;6.35;71.41
66019;HTU21D;52787;51.084;5.816;2022-11-20T00:48:49;6.37;71.34
66019;HTU21D;52787;51.084;5.816;2022-11-20T00:51:18;6.41;71.75
66019;HTU21D;52787;51.084;5.816;2022-11-20T00:53:46;6.46;71.67
66019;HTU21D;52787;51.084;5.816;2022-11-20T00:56:14;6.51;71.83
66019;HTU21D;52787;51.084;5.816;2022-11-20T00:58:44;6.56;71.49
66019;HTU21D;52787;51.084;5.816;2022-11-20T01:01:12;6.55;71.14
66019;HTU21D;52787;51.084;5.816;2022-11-20T01:03:43;6.55;70.81
66019;HTU21D;52787;51.084;5.816;2022-11-20T01:06:17;6.56;71.24
66019;HTU21D;52787;51.084;5.816;2022-11-20T01:08:44;6.55;71.49
66019;HTU21D;52787;51.084;5.816;2022-11-20T01:11:14;6.53;71.84
66019;HTU21D;52787;51.084;5.816;2022-11-20T01:14:02;6.56;72.01
66019;HTU21D;52787;51.084;5.816;2022-11-20T01:16:33;6.61;71.86
66019;HTU21D;52787;51.084;5.816;2022-11-20T01:19:03;6.64;71.68
66019;HTU21D;52787;51.084;5.816;2022-11-20T01:21:37;6.70;71.45
66019;HTU21D;52787;51.084;5.816;2022-11-20T01:24:06;6.71;71.33
66019;HTU21D;52787;51.084;5.816;2022-11-20T01:26:36;6.71;71.12
66019;HTU21D;52787;51.084;5.816;2022-11-20T01:29:04;6.71;70.84
66019;HTU21D;52787;51.084;5.816;2022-11-20T01:31:34;6.67;70.63
66019;HTU21D;52787;51.084;5.816;2022-11-20T01:34:04;6.64;70.56
66019;HTU21D;52787;51.084;5.816;2022-11-20T01:36:41;6.67;70.53
66019;HTU21D;52787;51.084;5.816;2022-11-20T01:39:14;6.66;70.68
66019;HTU21D;52787;51.084;5.816;2022-11-20T01:41:48;6.60;70.80
66019;HTU21D;52787;51.084;5.816;2022-11-20T01:44:56;6.59;70.77
66019;HTU21D;52787;51.084;5.816;2022-11-20T01:47:42;6.58;70.66
66019;HTU21D;52787;51.084;5.816;2022-11-20T01:50:21;6.54;70.94
66019;HTU21D;52787;51.084;5.816;2022-11-20T01:55:42;6.43;70.83
66019;HTU21D;52787;51.084;5.816;2022-11-20T01:58:12;6.29;71.46
66019;HTU21D;52787;51.084;5.816;2022-11-20T02:00:40;6.13;72.33
66019;HTU21D;52787;51.084;5.816;2022-11-20T02:03:13;6.06;72.89
66019;HTU21D;52787;51.084;5.816;2022-11-20T02:05:59;6.05;73.37
66019;HTU21D;52787;51.084;5.816;2022-11-20T02:08:30;6.01;73.70
66019;HTU21D;52787;51.084;5.816;2022-11-20T02:10:56;6.01;74.02
66019;HTU21D;52787;51.084;5.816;2022-11-20T02:13:22;5.99;74.10
66019;HTU21D;52787;51.084;5.816;2022-11-20T02:16:26;5.99;74.31
66019;HTU21D;52787;51.084;5.816;2022-11-20T02:18:57;5.99;73.35
66019;HTU21D;52787;51.084;5.816;2022-11-20T02:21:30;5.86;73.20
66019;HTU21D;52787;51.084;5.816;2022-11-20T02:26:32;5.70;73.64
66019;HTU21D;52787;51.084;5.816;2022-11-20T02:29:02;5.71;73.50
66019;HTU21D;52787;51.084;5.816;2022-11-20T02:31:28;5.71;73.45
66019;HTU21D;52787;51.084;5.816;2022-11-20T02:33:58;5.74;73.06
66019;HTU21D;52787;51.084;5.816;2022-11-20T02:36:27;5.69;72.78
66019;HTU21D;52787;51.084;5.816;2022-11-20T02:38:53;5.66;72.76
66019;HTU21D;52787;51.084;5.816;2022-11-20T02:41:19;5.65;73.03
66019;HTU21D;52787;51.084;5.816;2022-11-20T02:43:45;5.62;72.58
66019;HTU21D;52787;51.084;5.816;2022-11-20T02:46:11;5.57;72.89
66019;HTU21D;52787;51.084;5.816;2022-11-20T02:48:37;5.55;72.97
66019;HTU21D;52787;51.084;5.816;2022-11-20T02:51:02;5.56;72.76
66019;HTU21D;52787;51.084;5.816;2022-11-20T02:53:28;5.56;72.87
66019;HTU21D;52787;51.084;5.816;2022-11-20T02:55:54;5.54;72.76
66019;HTU21D;52787;51.084;5.816;2022-11-20T02:58:20;5.55;73.03
66019;HTU21D;52787;51.084;5.816;2022-11-20T03:00:46;5.64;73.09
66019;HTU21D;52787;51.084;5.816;2022-11-20T03:03:12;5.68;72.61
66019;HTU21D;52787;51.084;5.816;2022-11-20T03:05:37;5.66;72.64
66019;HTU21D;52787;51.084;5.816;2022-11-20T03:08:03;5.64;72.55
66019;HTU21D;52787;51.084;5.816;2022-11-20T03:10:29;5.63;72.44
66019;HTU21D;52787;51.084;5.816;2022-11-20T03:12:55;5.57;72.74
66019;HTU21D;52787;51.084;5.816;2022-11-20T03:15:24;5.51;73.07
66019;HTU21D;52787;51.084;5.816;2022-11-20T03:17:54;5.51;73.22
66019;HTU21D;52787;51.084;5.816;2022-11-20T03:20:21;5.49;72.98
66019;HTU21D;52787;51.084;5.816;2022-11-20T03:22:47;5.45;73.04
66019;HTU21D;52787;51.084;5.816;2022-11-20T03:25:12;5.46;73.21
66019;HTU21D;52787;51.084;5.816;2022-11-20T03:27:38;5.45;73.05
66019;HTU21D;52787;51.084;5.816;2022-11-20T03:30:05;5.39;73.06
66019;HTU21D;52787;51.084;5.816;2022-11-20T03:32:31;5.42;73.36
66019;HTU21D;52787;51.084;5.816;2022-11-20T03:34:57;5.47;73.64
66019;HTU21D;52787;51.084;5.816;2022-11-20T03:37:23;5.56;73.53
66019;HTU21D;52787;51.084;5.816;2022-11-20T03:39:49;5.62;73.23
66019;HTU21D;52787;51.084;5.816;2022-11-20T03:42:14;5.62;73.10
66019;HTU21D;52787;51.084;5.816;2022-11-20T03:44:59;5.63;73.20
66019;HTU21D;52787;51.084;5.816;2022-11-20T03:47:25;5.70;73.25
66019;HTU21D;52787;51.084;5.816;2022-11-20T03:49:51;5.76;73.09
66019;HTU21D;52787;51.084;5.816;2022-11-20T03:52:17;5.74;72.54
66019;HTU21D;52787;51.084;5.816;2022-11-20T03:54:42;5.64;72.90
66019;HTU21D;52787;51.084;5.816;2022-11-20T03:57:08;5.61;72.97
66019;HTU21D;52787;51.084;5.816;2022-11-20T03:59:34;5.59;73.22
66019;HTU21D;52787;51.084;5.816;2022-11-20T04:02:00;5.59;73.06
66019;HTU21D;52787;51.084;5.816;2022-11-20T04:04:25;5.60;73.05
66019;HTU21D;52787;51.084;5.816;2022-11-20T04:06:51;5.59;73.19
66019;HTU21D;52787;51.084;5.816;2022-11-20T04:09:17;5.57;72.99
66019;HTU21D;52787;51.084;5.816;2022-11-20T04:11:42;5.56;72.86
66019;HTU21D;52787;51.084;5.816;2022-11-20T04:14:14;5.57;72.96
66019;HTU21D;52787;51.084;5.816;2022-11-20T04:16:41;5.59;72.79
66019;HTU21D;52787;51.084;5.816;2022-11-20T04:19:10;5.53;72.87
66019;HTU21D;52787;51.084;5.816;2022-11-20T04:21:40;5.55;72.55
66019;HTU21D;52787;51.084;5.816;2022-11-20T04:24:07;5.53;72.67
66019;HTU21D;52787;51.084;5.816;2022-11-20T04:26:33;5.48;72.87
66019;HTU21D;52787;51.084;5.816;2022-11-20T04:28:59;5.43;73.54
66019;HTU21D;52787;51.084;5.816;2022-11-20T04:31:29;5.50;73.67
66019;HTU21D;52787;51.084;5.816;2022-11-20T04:34:03;5.51;73.37
66019;HTU21D;52787;51.084;5.816;2022-11-20T04:36:31;5.50;73.45
66019;HTU21D;52787;51.084;5.816;2022-11-20T04:39:03;5.55;73.38
66019;HTU21D;52787;51.084;5.816;2022-11-20T04:41:32;5.60;73.37
66019;HTU21D;52787;51.084;5.816;2022-11-20T04:44:01;5.64;73.30
66019;HTU21D;52787;51.084;5.816;2022-11-20T04:46:34;5.62;72.96
66019;HTU21D;52787;51.084;5.816;2022-11-20T04:49:05;5.60;73.20
66019;HTU21D;52787;51.084;5.816;2022-11-20T04:51:32;5.61;72.99
66019;HTU21D;52787;51.084;5.816;2022-11-20T04:53:59;5.63;73.18
66019;HTU21D;52787;51.084;5.816;2022-11-20T04:56:25;5.63;73.24
66019;HTU21D;52787;51.084;5.816;2022-11-20T04:58:51;5.64;73.33
66019;HTU21D;52787;51.084;5.816;2022-11-20T05:01:20;5.64;73.53
66019;HTU21D;52787;51.084;5.816;2022-11-20T05:03:47;5.64;73.38
66019;HTU21D;52787;51.084;5.816;2022-11-20T05:06:15;5.63;73.58
66019;HTU21D;52787;51.084;5.816;2022-11-20T05:08:43;5.64;73.86
66019;HTU21D;52787;51.084;5.816;2022-11-20T05:11:11;5.68;73.67
66019;HTU21D;52787;51.084;5.816;2022-11-20T05:13:39;5.71;73.44
66019;HTU21D;52787;51.084;5.816;2022-11-20T05:16:18;5.76;73.22
66019;HTU21D;52787;51.084;5.816;2022-11-20T05:18:46;5.80;72.89
66019;HTU21D;52787;51.084;5.816;2022-11-20T05:21:12;5.78;73.35
66019;HTU21D;52787;51.084;5.816;2022-11-20T05:23:40;5.76;73.32
66019;HTU21D;52787;51.084;5.816;2022-11-20T05:26:08;5.69;73.49
66019;HTU21D;52787;51.084;5.816;2022-11-20T05:28:38;5.74;73.62
66019;HTU21D;52787;51.084;5.816;2022-11-20T05:31:13;5.75;73.71
66019;HTU21D;52787;51.084;5.816;2022-11-20T05:33:44;5.76;73.77
66019;HTU21D;52787;51.084;5.816;2022-11-20T05:36:13;5.78;73.87
66019;HTU21D;52787;51.084;5.816;2022-11-20T05:38:39;5.83;73.77
66019;HTU21D;52787;51.084;5.816;2022-11-20T05:41:08;5.92;73.28
66019;HTU21D;52787;51.084;5.816;2022-11-20T05:43:40;5.96;72.74
66019;HTU21D;52787;51.084;5.816;2022-11-20T05:46:08;5.93;72.68
66019;HTU21D;52787;51.084;5.816;2022-11-20T05:48:38;5.87;73.07
66019;HTU21D;52787;51.084;5.816;2022-11-20T05:51:07;5.83;73.12
66019;HTU21D;52787;51.084;5.816;2022-11-20T05:53:36;5.80;72.65
66019;HTU21D;52787;51.084;5.816;2022-11-20T05:56:07;5.82;72.21
66019;HTU21D;52787;51.084;5.816;2022-11-20T05:58:36;5.78;71.85
66019;HTU21D;52787;51.084;5.816;2022-11-20T06:03:38;5.76;72.04
66019;HTU21D;52787;51.084;5.816;2022-11-20T06:06:05;5.79;72.13
66019;HTU21D;52787;51.084;5.816;2022-11-20T06:08:32;5.81;72.51
66019;HTU21D;52787;51.084;5.816;2022-11-20T06:10:58;5.83;73.00
66019;HTU21D;52787;51.084;5.816;2022-11-20T06:13:24;5.84;72.96
66019;HTU21D;52787;51.084;5.816;2022-11-20T06:15:51;5.90;73.14
66019;HTU21D;52787;51.084;5.816;2022-11-20T06:18:18;5.91;73.19
66019;HTU21D;52787;51.084;5.816;2022-11-20T06:20:45;5.86;73.53
66019;HTU21D;52787;51.084;5.816;2022-11-20T06:23:12;5.83;73.61
66019;HTU21D;52787;51.084;5.816;2022-11-20T06:25:39;5.82;73.93
66019;HTU21D;52787;51.084;5.816;2022-11-20T06:28:06;5.85;73.90
66019;HTU21D;52787;51.084;5.816;2022-11-20T06:30:33;5.90;74.03
66019;HTU21D;52787;51.084;5.816;2022-11-20T06:32:59;5.93;74.09
66019;HTU21D;52787;51.084;5.816;2022-11-20T06:35:24;5.92;74.23
66019;HTU21D;52787;51.084;5.816;2022-11-20T06:37:50;5.93;74.54
66019;HTU21D;52787;51.084;5.816;2022-11-20T06:40:16;5.90;75.42
66019;HTU21D;52787;51.084;5.816;2022-11-20T06:42:42;5.81;76.43
66019;HTU21D;52787;51.084;5.816;2022-11-20T06:45:08;5.75;77.25
66019;HTU21D;52787;51.084;5.816;2022-11-20T06:47:34;5.79;77.66
66019;HTU21D;52787;51.084;5.816;2022-11-20T06:50:00;5.76;78.22
66019;HTU21D;52787;51.084;5.816;2022-11-20T06:52:26;5.66;78.74
66019;HTU21D;52787;51.084;5.816;2022-11-20T06:54:52;5.62;79.45
66019;HTU21D;52787;51.084;5.816;2022-11-20T06:57:18;5.63;79.69
66019;HTU21D;52787;51.084;5.816;2022-11-20T06:59:43;5.68;79.63
66019;HTU21D;52787;51.084;5.816;2022-11-20T07:02:11;5.75;79.87
66019;HTU21D;52787;51.084;5.816;2022-11-20T07:04:38;5.79;80.04
66019;HTU21D;52787;51.084;5.816;2022-11-20T07:07:04;5.75;80.11
66019;HTU21D;52787;51.084;5.816;2022-11-20T07:09:32;5.75;80.08
66019;HTU21D;52787;51.084;5.816;2022-11-20T07:11:58;5.70;80.08
66019;HTU21D;52787;51.084;5.816;2022-11-20T07:14:26;5.69;80.49
66019;HTU21D;52787;51.084;5.816;2022-11-20T07:16:52;5.65;80.76
66019;HTU21D;52787;51.084;5.816;2022-11-20T07:19:18;5.67;80.79
66019;HTU21D;52787;51.084;5.816;2022-11-20T07:21:44;5.66;81.15
66019;HTU21D;52787;51.084;5.816;2022-11-20T07:24:10;5.64;81.41
66019;HTU21D;52787;51.084;5.816;2022-11-20T07:26:36;5.71;81.39
66019;HTU21D;52787;51.084;5.816;2022-11-20T07:29:01;5.79;81.27
66019;HTU21D;52787;51.084;5.816;2022-11-20T07:31:27;5.83;80.86
66019;HTU21D;52787;51.084;5.816;2022-11-20T07:33:53;5.87;80.57
66019;HTU21D;52787;51.084;5.816;2022-11-20T07:36:19;5.90;80.56
66019;HTU21D;52787;51.084;5.816;2022-11-20T07:38:44;5.91;80.65
66019;HTU21D;52787;51.084;5.816;2022-11-20T07:41:10;5.93;80.39
66019;HTU21D;52787;51.084;5.816;2022-11-20T07:43:36;5.99;80.10
66019;HTU21D;52787;51.084;5.816;2022-11-20T07:46:01;5.99;79.85
66019;HTU21D;52787;51.084;5.816;2022-11-20T07:48:29;5.94;80.27
66019;HTU21D;52787;51.084;5.816;2022-11-20T07:50:56;5.90;80.44
66019;HTU21D;52787;51.084;5.816;2022-11-20T07:53:22;5.83;80.75
66019;HTU21D;52787;51.084;5.816;2022-11-20T07:55:49;5.83;81.12
66019;HTU21D;52787;51.084;5.816;2022-11-20T07:58:18;5.83;81.08
66019;HTU21D;52787;51.084;5.816;2022-11-20T08:00:45;5.84;81.48
66019;HTU21D;52787;51.084;5.816;2022-11-20T08:03:11;5.85;81.43
66019;HTU21D;52787;51.084;5.816;2022-11-20T08:05:37;5.87;81.20
66019;HTU21D;52787;51.084;5.816;2022-11-20T08:08:03;5.89;81.13
66019;HTU21D;52787;51.084;5.816;2022-11-20T08:10:29;5.92;81.08
66019;HTU21D;52787;51.084;5.816;2022-11-20T08:12:54;5.91;81.13
66019;HTU21D;52787;51.084;5.816;2022-11-20T08:15:39;5.90;80.92
66019;HTU21D;52787;51.084;5.816;2022-11-20T08:18:10;5.93;81.16
66019;HTU21D;52787;51.084;5.816;2022-11-20T08:20:37;5.99;80.92
66019;HTU21D;52787;51.084;5.816;2022-11-20T08:23:05;6.05;80.75
66019;HTU21D;52787;51.084;5.816;2022-11-20T08:25:34;6.11;80.69
66019;HTU21D;52787;51.084;5.816;2022-11-20T08:28:05;6.25;80.52
66019;HTU21D;52787;51.084;5.816;2022-11-20T08:30:33;6.36;80.07
66019;HTU21D;52787;51.084;5.816;2022-11-20T08:33:08;6.40;79.73
66019;HTU21D;52787;51.084;5.816;2022-11-20T08:35:35;6.44;79.52
66019;HTU21D;52787;51.084;5.816;2022-11-20T08:38:03;6.43;79.75
66019;HTU21D;52787;51.084;5.816;2022-11-20T08:40:29;6.51;79.76
66019;HTU21D;52787;51.084;5.816;2022-11-20T08:42:56;6.56;79.45
66019;HTU21D;52787;51.084;5.816;2022-11-20T08:45:22;6.57;79.31
66019;HTU21D;52787;51.084;5.816;2022-11-20T08:47:48;6.60;78.68
66019;HTU21D;52787;51.084;5.816;2022-11-20T08:50:16;6.61;78.26
66019;HTU21D;52787;51.084;5.816;2022-11-20T08:52:42;6.64;78.53
66019;HTU21D;52787;51.084;5.816;2022-11-20T08:55:09;6.65;78.29
66019;HTU21D;52787;51.084;5.816;2022-11-20T08:57:36;6.64;78.82
66019;HTU21D;52787;51.084;5.816;2022-11-20T09:00:04;6.63;78.65
66019;HTU21D;52787;51.084;5.816;2022-11-20T09:02:32;6.57;78.86
66019;HTU21D;52787;51.084;5.816;2022-11-20T09:04:58;6.57;78.88
66019;HTU21D;52787;51.084;5.816;2022-11-20T09:07:24;6.58;78.82
66019;HTU21D;52787;51.084;5.816;2022-11-20T09:09:49;6.65;78.81
66019;HTU21D;52787;51.084;5.816;2022-11-20T09:12:15;6.69;78.74
66019;HTU21D;52787;51.084;5.816;2022-11-20T09:14:41;6.72;78.41
66019;HTU21D;52787;51.084;5.816;2022-11-20T09:17:07;6.79;78.33
66019;HTU21D;52787;51.084;5.816;2022-11-20T09:19:35;6.87;78.18
66019;HTU21D;52787;51.084;5.816;2022-11-20T09:22:01;7.03;77.98
66019;HTU21D;52787;51.084;5.816;2022-11-20T09:24:27;7.17;77.53
66019;HTU21D;52787;51.084;5.816;2022-11-20T09:26:53;7.33;77.05
66019;HTU21D;52787;51.084;5.816;2022-11-20T09:29:19;7.40;76.50
66019;HTU21D;52787;51.084;5.816;2022-11-20T09:31:44;7.44;76.21
66019;HTU21D;52787;51.084;5.816;2022-11-20T09:34:10;7.49;76.55
66019;HTU21D;52787;51.084;5.816;2022-11-20T09:36:36;7.58;76.09
66019;HTU21D;52787;51.084;5.816;2022-11-20T09:39:02;7.56;75.79
66019;HTU21D;52787;51.084;5.816;2022-11-20T09:48:48;7.58;75.77
66019;HTU21D;52787;51.084;5.816;2022-11-20T09:52:14;7.55;75.71
66019;HTU21D;52787;51.084;5.816;2022-11-20T09:54:30;7.59;76.01
66019;HTU21D;52787;51.084;5.816;2022-11-20T09:57:21;7.69;75.63
66019;HTU21D;52787;51.084;5.816;2022-11-20T10:00:03;7.75;75.12
66019;HTU21D;52787;51.084;5.816;2022-11-20T10:02:48;7.82;74.92
66019;HTU21D;52787;51.084;5.816;2022-11-20T10:05:41;7.84;74.74
66019;HTU21D;52787;51.084;5.816;2022-11-20T10:08:22;7.82;74.82
66019;HTU21D;52787;51.084;5.816;2022-11-20T10:13:48;7.97;74.67
66019;HTU21D;52787;51.084;5.816;2022-11-20T10:25:29;7.88;74.98
66019;HTU21D;52787;51.084;5.816;2022-11-20T10:28:27;7.87;75.61
66019;HTU21D;52787;51.084;5.816;2022-11-20T10:31:03;8.03;75.27
66019;HTU21D;52787;51.084;5.816;2022-11-20T10:33:36;8.17;74.83
66019;HTU21D;52787;51.084;5.816;2022-11-20T10:36:16;8.26;74.82
66019;HTU21D;52787;51.084;5.816;2022-11-20T10:38:57;8.32;74.99
66019;HTU21D;52787;51.084;5.816;2022-11-20T10:41:41;8.35;74.63
66019;HTU21D;52787;51.084;5.816;2022-11-20T10:44:24;8.39;74.55
66019;HTU21D;52787;51.084;5.816;2022-11-20T10:47:18;8.46;74.52
66019;HTU21D;52787;51.084;5.816;2022-11-20T10:49:50;8.47;74.28
66019;HTU21D;52787;51.084;5.816;2022-11-20T10:55:48;8.58;74.31
66019;HTU21D;52787;51.084;5.816;2022-11-20T11:01:18;8.73;74.25
66019;HTU21D;52787;51.084;5.816;2022-11-20T11:03:48;8.74;73.93
66019;HTU21D;52787;51.084;5.816;2022-11-20T11:06:17;8.73;73.90
66019;HTU21D;52787;51.084;5.816;2022-11-20T11:08:50;8.71;73.57
66019;HTU21D;52787;51.084;5.816;2022-11-20T11:11:28;8.70;73.84
66019;HTU21D;52787;51.084;5.816;2022-11-20T11:14:09;8.67;74.27
66019;HTU21D;52787;51.084;5.816;2022-11-20T11:16:35;8.65;74.02
66019;HTU21D;52787;51.084;5.816;2022-11-20T11:19:12;8.60;74.63
66019;HTU21D;52787;51.084;5.816;2022-11-20T11:21:50;8.61;74.91
66019;HTU21D;52787;51.084;5.816;2022-11-20T11:24:27;8.64;74.76
66019;HTU21D;52787;51.084;5.816;2022-11-20T11:27:00;8.61;75.04
66019;HTU21D;52787;51.084;5.816;2022-11-20T11:29:32;8.63;75.40
66019;HTU21D;52787;51.084;5.816;2022-11-20T11:32:07;8.67;75.67
66019;HTU21D;52787;51.084;5.816;2022-11-20T11:34:40;8.71;75.76
66019;HTU21D;52787;51.084;5.816;2022-11-20T11:37:17;8.73;75.91
66019;HTU21D;52787;51.084;5.816;2022-11-20T11:39:48;8.75;76.28
66019;HTU21D;52787;51.084;5.816;2022-11-20T11:42:18;8.76;76.62
66019;HTU21D;52787;51.084;5.816;2022-11-20T11:44:47;8.78;76.62
66019;HTU21D;52787;51.084;5.816;2022-11-20T11:47:45;8.78;76.92
66019;HTU21D;52787;51.084;5.816;2022-11-20T11:50:20;8.80;77.37
66019;HTU21D;52787;51.084;5.816;2022-11-20T11:53:12;8.87;77.76
66019;HTU21D;52787;51.084;5.816;2022-11-20T11:56:29;8.92;77.92
66019;HTU21D;52787;51.084;5.816;2022-11-20T11:58:47;8.95;77.81
66019;HTU21D;52787;51.084;5.816;2022-11-20T12:04:44;9.01;77.75
66019;HTU21D;52787;51.084;5.816;2022-11-20T12:10:21;9.02;78.18
66019;HTU21D;52787;51.084;5.816;2022-11-20T12:16:04;9.16;78.24
66019;HTU21D;52787;51.084;5.816;2022-11-20T12:18:30;9.25;77.86
66019;HTU21D;52787;51.084;5.816;2022-11-20T12:29:55;9.68;77.05
66019;HTU21D;52787;51.084;5.816;2022-11-20T12:42:01;10.00;75.94
66019;HTU21D;52787;51.084;5.816;2022-11-20T13:02:09;10.46;75.06
66019;HTU21D;52787;51.084;5.816;2022-11-20T13:04:55;10.50;74.99
66019;HTU21D;52787;51.084;5.816;2022-11-20T13:07:30;10.56;75.14
66019;HTU21D;52787;51.084;5.816;2022-11-20T13:10:00;10.64;75.00
66019;HTU21D;52787;51.084;5.816;2022-11-20T13:15:30;10.56;75.32
66019;HTU21D;52787;51.084;5.816;2022-11-20T13:18:07;10.51;75.79
66019;HTU21D;52787;51.084;5.816;2022-11-20T13:20:40;10.45;76.01
66019;HTU21D;52787;51.084;5.816;2022-11-20T13:23:08;10.43;76.10
66019;HTU21D;52787;51.084;5.816;2022-11-20T13:25:37;10.40;76.37
66019;HTU21D;52787;51.084;5.816;2022-11-20T13:28:26;10.40;76.37
66019;HTU21D;52787;51.084;5.816;2022-11-20T13:30:55;10.37;76.43
66019;HTU21D;52787;51.084;5.816;2022-11-20T13:33:33;10.33;76.82
66019;HTU21D;52787;51.084;5.816;2022-11-20T13:36:07;10.30;77.13
66019;HTU21D;52787;51.084;5.816;2022-11-20T13:38:51;10.27;77.44
66019;HTU21D;52787;51.084;5.816;2022-11-20T13:41:32;10.23;77.66
66019;HTU21D;52787;51.084;5.816;2022-11-20T13:46:58;10.19;78.15
66019;HTU21D;52787;51.084;5.816;2022-11-20T13:49:38;10.14;78.59
66019;HTU21D;52787;51.084;5.816;2022-11-20T14:00:28;10.09;79.90
66019;HTU21D;52787;51.084;5.816;2022-11-20T14:03:10;10.06;80.11
66019;HTU21D;52787;51.084;5.816;2022-11-20T14:05:56;10.01;80.72
66019;HTU21D;52787;51.084;5.816;2022-11-20T14:08:47;9.96;81.22
66019;HTU21D;52787;51.084;5.816;2022-11-20T14:11:19;9.93;81.69
66019;HTU21D;52787;51.084;5.816;2022-11-20T14:14:02;9.90;82.20
66019;HTU21D;52787;51.084;5.816;2022-11-20T14:16:45;9.84;82.25
66019;HTU21D;52787;51.084;5.816;2022-11-20T14:21:53;9.74;81.43
66019;HTU21D;52787;51.084;5.816;2022-11-20T14:24:22;9.71;81.83
66019;HTU21D;52787;51.084;5.816;2022-11-20T14:26:51;9.67;81.51
66019;HTU21D;52787;51.084;5.816;2022-11-20T14:29:20;9.63;81.57
66019;HTU21D;52787;51.084;5.816;2022-11-20T14:31:54;9.57;81.66
66019;HTU21D;52787;51.084;5.816;2022-11-20T14:34:25;9.55;81.68
66019;HTU21D;52787;51.084;5.816;2022-11-20T14:37:03;9.53;81.59
66019;HTU21D;52787;51.084;5.816;2022-11-20T14:39:37;9.45;81.84
66019;HTU21D;52787;51.084;5.816;2022-11-20T14:42:22;9.41;82.13
66019;HTU21D;52787;51.084;5.816;2022-11-20T14:44:51;9.35;82.55
66019;HTU21D;52787;51.084;5.816;2022-11-20T14:47:29;9.34;82.97
66019;HTU21D;52787;51.084;5.816;2022-11-20T14:49:57;9.31;83.16
66019;HTU21D;52787;51.084;5.816;2022-11-20T14:52:26;9.31;83.16
66019;HTU21D;52787;51.084;5.816;2022-11-20T14:54:55;9.31;83.48
66019;HTU21D;52787;51.084;5.816;2022-11-20T14:57:36;9.30;83.79
66019;HTU21D;52787;51.084;5.816;2022-11-20T15:02:48;9.26;83.97
66019;HTU21D;52787;51.084;5.816;2022-11-20T15:05:20;9.22;84.43
66019;HTU21D;52787;51.084;5.816;2022-11-20T15:07:51;9.23;84.83
66019;HTU21D;52787;51.084;5.816;2022-11-20T15:10:29;9.23;85.00
66019;HTU21D;52787;51.084;5.816;2022-11-20T15:13:05;9.22;85.23
66019;HTU21D;52787;51.084;5.816;2022-11-20T15:15:48;9.21;85.35
66019;HTU21D;52787;51.084;5.816;2022-11-20T15:18:36;9.20;85.63
66019;HTU21D;52787;51.084;5.816;2022-11-20T15:21:11;9.20;85.75
66019;HTU21D;52787;51.084;5.816;2022-11-20T15:23:38;9.18;86.00
66019;HTU21D;52787;51.084;5.816;2022-11-20T15:26:05;9.15;86.44
66019;HTU21D;52787;51.084;5.816;2022-11-20T15:28:44;9.14;86.79
66019;HTU21D;52787;51.084;5.816;2022-11-20T15:31:15;9.15;86.92
66019;HTU21D;52787;51.084;5.816;2022-11-20T15:33:42;9.14;87.03
66019;HTU21D;52787;51.084;5.816;2022-11-20T15:36:08;9.16;87.15
66019;HTU21D;52787;51.084;5.816;2022-11-20T15:38:35;9.15;87.28
66019;HTU21D;52787;51.084;5.816;2022-11-20T15:41:01;9.11;87.32
66019;HTU21D;52787;51.084;5.816;2022-11-20T15:43:27;9.08;87.57
66019;HTU21D;52787;51.084;5.816;2022-11-20T15:46:15;9.03;87.73
66019;HTU21D;52787;51.084;5.816;2022-11-20T15:48:51;8.95;88.14
66019;HTU21D;52787;51.084;5.816;2022-11-20T15:51:30;8.91;88.47
66019;HTU21D;52787;51.084;5.816;2022-11-20T15:53:58;8.93;88.60
66019;HTU21D;52787;51.084;5.816;2022-11-20T15:56:25;8.91;88.60
66019;HTU21D;52787;51.084;5.816;2022-11-20T15:58:51;8.88;88.75
66019;HTU21D;52787;51.084;5.816;2022-11-20T16:01:22;8.88;88.94
66019;HTU21D;52787;51.084;5.816;2022-11-20T16:03:48;8.87;89.14
66019;HTU21D;52787;51.084;5.816;2022-11-20T16:06:14;8.86;89.18
66019;HTU21D;52787;51.084;5.816;2022-11-20T16:08:41;8.82;89.28
66019;HTU21D;52787;51.084;5.816;2022-11-20T16:11:10;8.85;89.50
66019;HTU21D;52787;51.084;5.816;2022-11-20T16:13:38;8.83;89.67
66019;HTU21D;52787;51.084;5.816;2022-11-20T16:16:33;8.85;89.57
66019;HTU21D;52787;51.084;5.816;2022-11-20T16:19:01;8.85;89.70
66019;HTU21D;52787;51.084;5.816;2022-11-20T16:21:27;8.81;89.66
66019;HTU21D;52787;51.084;5.816;2022-11-20T16:24:04;8.80;89.92
66019;HTU21D;52787;51.084;5.816;2022-11-20T16:26:31;8.79;90.05
66019;HTU21D;52787;51.084;5.816;2022-11-20T16:29:02;8.76;90.22
66019;HTU21D;52787;51.084;5.816;2022-11-20T16:31:31;8.76;90.34
66019;HTU21D;52787;51.084;5.816;2022-11-20T16:34:00;8.76;90.69
66019;HTU21D;52787;51.084;5.816;2022-11-20T16:36:29;8.75;90.76
66019;HTU21D;52787;51.084;5.816;2022-11-20T16:38:57;8.78;90.81
66019;HTU21D;52787;51.084;5.816;2022-11-20T16:41:26;8.77;90.69
66019;HTU21D;52787;51.084;5.816;2022-11-20T16:43:55;8.80;90.81
66019;HTU21D;52787;51.084;5.816;2022-11-20T16:46:24;8.78;90.99
66019;HTU21D;52787;51.084;5.816;2022-11-20T16:49:03;8.80;91.20
66019;HTU21D;52787;51.084;5.816;2022-11-20T16:51:34;8.79;91.43
66019;HTU21D;52787;51.084;5.816;2022-11-20T16:54:08;8.79;91.43
66019;HTU21D;52787;51.084;5.816;2022-11-20T16:56:35;8.79;91.76
66019;HTU21D;52787;51.084;5.816;2022-11-20T16:59:02;8.80;91.79
66019;HTU21D;52787;51.084;5.816;2022-11-20T17:01:29;8.82;91.88
66019;HTU21D;52787;51.084;5.816;2022-11-20T17:03:57;8.86;92.07
66019;HTU21D;52787;51.084;5.816;2022-11-20T17:06:30;8.88;92.06
66019;HTU21D;52787;51.084;5.816;2022-11-20T17:08:57;8.93;92.08
66019;HTU21D;52787;51.084;5.816;2022-11-20T17:11:25;8.97;92.10
66019;HTU21D;52787;51.084;5.816;2022-11-20T17:13:51;8.98;92.03
66019;HTU21D;52787;51.084;5.816;2022-11-20T17:16:22;9.05;91.84
66019;HTU21D;52787;51.084;5.816;2022-11-20T17:18:49;9.07;91.78
66019;HTU21D;52787;51.084;5.816;2022-11-20T17:21:17;9.10;91.72
66019;HTU21D;52787;51.084;5.816;2022-11-20T17:23:44;9.12;91.69
66019;HTU21D;52787;51.084;5.816;2022-11-20T17:26:13;9.14;91.60
66019;HTU21D;52787;51.084;5.816;2022-11-20T17:28:43;9.16;91.50
66019;HTU21D;52787;51.084;5.816;2022-11-20T17:31:12;9.19;91.37